Time;durP1;ratioP1;P1;durP2;ratioP2;P2;SDS_P1;SDS_P2;PMS_P1;PMS_P2;Temp;Humidity;BMP_temperature;BMP_pressure;BME280_temperature;BME280_humidity;BME280_pressure;Samples;Min_cycle;Max_cycle;Signal;HPM_P1;HPM_P2
2023/12/09 00:01:49;;;;;;;9.25;6.05;;;;;;;0.60;100.00;98177.66;6101359;19;20021;-71
2023/12/09 00:03:50;;;;;;;11.57;5.85;;;;;;;0.57;100.00;98167.38;6101253;19;20011;-71
2023/12/09 00:05:50;;;;;;;12.57;6.97;;;;;;;0.56;100.00;98173.97;6101250;19;20025;-71
2023/12/09 00:07:51;;;;;;;12.10;6.40;;;;;;;0.55;100.00;98170.44;6102357;19;20003;-71
2023/12/09 00:09:51;;;;;;;15.95;8.18;;;;;;;0.54;100.00;98168.03;6099828;19;20016;-71
2023/12/09 00:11:52;;;;;;;11.02;7.13;;;;;;;0.55;100.00;98175.06;6100869;19;20021;-71
2023/12/09 00:13:52;;;;;;;12.82;7.25;;;;;;;0.52;100.00;98168.38;6101301;19;20011;-71
2023/12/09 00:15:52;;;;;;;10.55;7.03;;;;;;;0.53;100.00;98174.59;6101192;19;20389;-71
2023/12/09 00:17:53;;;;;;;12.93;6.85;;;;;;;0.50;100.00;98176.06;6101908;19;19998;-71
2023/12/09 00:19:53;;;;;;;16.88;8.27;;;;;;;0.49;100.00;98179.06;6099740;19;20010;-71
2023/12/09 00:21:53;;;;;;;15.68;7.65;;;;;;;0.47;100.00;98181.31;6101421;19;20022;-71
2023/12/09 00:23:54;;;;;;;10.27;6.78;;;;;;;0.44;100.00;98176.53;6101111;19;20675;-71
2023/12/09 00:25:54;;;;;;;13.45;7.38;;;;;;;0.43;100.00;98170.28;6100370;19;20548;-71
2023/12/09 00:27:54;;;;;;;20.58;11.05;;;;;;;0.49;100.00;98182.59;6100983;19;20038;-71
2023/12/09 00:29:55;;;;;;;14.82;8.77;;;;;;;0.49;100.00;98173.63;6100159;19;20006;-71
2023/12/09 00:31:55;;;;;;;15.88;9.05;;;;;;;0.48;100.00;98178.28;6100873;19;20018;-71
2023/12/09 00:33:55;;;;;;;17.27;10.70;;;;;;;0.48;100.00;98172.81;6100287;19;20003;-71
2023/12/09 00:35:56;;;;;;;16.45;9.25;;;;;;;0.50;100.00;98177.97;6100289;19;20100;-71
2023/12/09 00:37:56;;;;;;;16.50;9.93;;;;;;;0.53;100.00;98180.06;6101668;19;20030;-71
2023/12/09 00:39:56;;;;;;;15.50;9.57;;;;;;;0.51;100.00;98171.41;6099833;19;20011;-71
2023/12/09 00:41:57;;;;;;;15.88;8.02;;;;;;;0.53;100.00;98175.41;6101282;19;20027;-71
2023/12/09 00:43:57;;;;;;;19.63;8.57;;;;;;;0.50;100.00;98176.06;6099692;19;20010;-71
2023/12/09 00:45:57;;;;;;;15.88;8.38;;;;;;;0.53;100.00;98180.84;6100454;19;20335;-71
2023/12/09 00:47:59;;;;;;;18.00;8.93;;;;;;;0.51;100.00;98185.03;6098265;19;20413;-71
2023/12/09 00:50:00;;;;;;;13.23;7.67;;;;;;;0.53;100.00;98185.50;6088240;19;20003;-71
2023/12/09 00:52:00;;;;;;;13.23;7.95;;;;;;;0.50;100.00;98181.50;6098873;19;20573;-71
2023/12/09 00:54:01;;;;;;;16.33;9.00;;;;;;;0.53;100.00;98188.22;6099633;19;20006;-71
2023/12/09 00:56:01;;;;;;;14.05;7.93;;;;;;;0.51;100.00;98185.03;6098729;19;20349;-71
2023/12/09 00:58:01;;;;;;;15.10;8.45;;;;;;;0.52;100.00;98190.13;6097014;19;20463;-71
2023/12/09 01:00:04;;;;;;;13.35;7.55;;;;;;;0.52;100.00;98197.50;6097452;19;20352;-71
2023/12/09 01:02:04;;;;;;;13.13;7.18;;;;;;;0.52;100.00;98194.78;6098757;19;20014;-71
2023/12/09 01:04:06;;;;;;;13.90;6.85;;;;;;;0.50;100.00;98202.47;6097776;19;20276;-71
2023/12/09 01:06:06;;;;;;;14.63;7.65;;;;;;;0.48;100.00;98199.25;6098500;19;20017;-71
2023/12/09 01:08:06;;;;;;;10.57;6.38;;;;;;;0.46;100.00;98196.84;6100059;19;20006;-71
2023/12/09 01:10:07;;;;;;;11.80;6.47;;;;;;;0.48;100.00;98196.53;6094936;19;20007;-71
2023/12/09 01:12:07;;;;;;;10.50;6.15;;;;;;;0.49;100.00;98207.09;6097832;19;20003;-71
2023/12/09 01:14:08;;;;;;;13.52;6.57;;;;;;;0.56;100.00;98212.88;6099417;19;20070;-71
2023/12/09 01:16:09;;;;;;;9.68;5.70;;;;;;;0.63;100.00;98209.69;6104136;19;20010;-71
2023/12/09 01:18:09;;;;;;;7.65;5.40;;;;;;;0.75;100.00;98217.22;6104961;19;20078;-71
2023/12/09 01:20:10;;;;;;;11.60;5.28;;;;;;;0.86;100.00;98220.44;6102036;19;20027;-71
2023/12/09 01:22:10;;;;;;;10.88;5.80;;;;;;;1.00;100.00;98219.16;6105558;19;20010;-71
2023/12/09 01:24:11;;;;;;;8.60;5.28;;;;;;;1.08;100.00;98226.53;6104676;19;20005;-71
2023/12/09 01:26:11;;;;;;;8.23;4.70;;;;;;;1.11;100.00;98216.88;6104552;19;19991;-71
2023/12/09 01:28:11;;;;;;;7.47;4.93;;;;;;;1.09;100.00;98217.22;6103857;19;20003;-71
2023/12/09 01:30:12;;;;;;;7.60;4.82;;;;;;;1.16;100.00;98222.19;6102809;19;20312;-71
2023/12/09 01:32:13;;;;;;;8.48;4.85;;;;;;;1.16;100.00;98219.47;6104277;19;20102;-71
2023/12/09 01:34:13;;;;;;;8.15;4.85;;;;;;;1.15;100.00;98220.56;6104054;19;20558;-71
2023/12/09 01:36:13;;;;;;;10.25;5.10;;;;;;;1.09;100.00;98213.69;6104502;19;20341;-71
2023/12/09 01:38:14;;;;;;;9.93;4.75;;;;;;;1.06;100.00;98214.31;6102414;19;20367;-71
2023/12/09 01:40:15;;;;;;;7.88;5.00;;;;;;;1.02;100.00;98213.38;6103625;19;20066;-71
2023/12/09 01:42:15;;;;;;;8.98;4.38;;;;;;;1.04;100.00;98220.09;6105537;19;20316;-71
2023/12/09 01:44:15;;;;;;;7.07;4.85;;;;;;;1.06;100.00;98220.56;6104367;19;20738;-71
2023/12/09 01:46:17;;;;;;;7.32;4.10;;;;;;;1.08;100.00;98221.06;6103129;19;20507;-71
2023/12/09 01:48:19;;;;;;;10.38;4.00;;;;;;;1.15;100.00;98222.47;6104274;19;20374;-71
2023/12/09 01:50:19;;;;;;;11.23;3.72;;;;;;;1.24;100.00;98209.66;6094997;19;20010;-71
2023/12/09 01:52:20;;;;;;;5.88;3.75;;;;;;;1.26;100.00;98216.41;6090340;19;20174;-71
2023/12/09 01:54:20;;;;;;;9.23;3.72;;;;;;;1.27;100.00;98234.34;6089793;19;20330;-71
2023/12/09 01:56:21;;;;;;;6.90;3.67;;;;;;;1.27;100.00;98222.66;6090463;19;20023;-71
2023/12/09 01:58:22;;;;;;;6.55;4.32;;;;;;;1.23;100.00;98224.41;6090038;19;20018;-71
2023/12/09 02:00:22;;;;;;;5.40;3.70;;;;;;;1.28;100.00;98222.31;6088240;19;20007;-71
2023/12/09 02:02:23;;;;;;;7.50;3.88;;;;;;;1.31;100.00;98218.94;6089788;19;20909;-71
2023/12/09 02:04:23;;;;;;;6.72;3.45;;;;;;;1.38;100.00;98216.50;6090354;19;20626;-71
2023/12/09 02:06:24;;;;;;;6.32;3.90;;;;;;;1.41;100.00;98220.53;6089782;19;20017;-71
2023/12/09 02:08:24;;;;;;;6.90;3.45;;;;;;;1.49;100.00;98210.72;6090489;19;20011;-71
2023/12/09 02:10:25;;;;;;;7.53;3.85;;;;;;;1.64;100.00;98215.66;6088317;19;20010;-71
2023/12/09 02:12:36;;;;;;;5.95;3.60;;;;;;;1.84;100.00;98217.69;6089829;19;20007;-71
2023/12/09 02:14:54;;;;;;;6.53;4.55;;;;;;;2.09;100.00;98218.69;6089063;19;20014;-71
2023/12/09 02:17:10;;;;;;;7.40;3.97;;;;;;;2.14;100.00;98223.16;6090352;19;20006;-72
2023/12/09 02:19:13;;;;;;;7.13;4.07;;;;;;;2.16;100.00;98220.91;6088863;19;20002;-72
2023/12/09 02:21:14;;;;;;;6.88;3.75;;;;;;;2.16;100.00;98220.91;6089743;19;20005;-71
2023/12/09 02:23:15;;;;;;;8.05;3.95;;;;;;;2.15;100.00;98213.84;6090367;19;20002;-71
2023/12/09 02:25:15;;;;;;;4.93;3.33;;;;;;;2.18;100.00;98222.19;6090926;19;20830;-71
2023/12/09 02:27:24;;;;;;;5.97;3.78;;;;;;;2.19;100.00;98218.31;6089391;19;20281;-71
2023/12/09 02:29:26;;;;;;;7.20;4.30;;;;;;;2.10;100.00;98225.75;6088432;19;20407;-72
2023/12/09 02:31:31;;;;;;;6.03;3.70;;;;;;;2.04;100.00;98218.88;6089910;19;20006;-72
2023/12/09 02:33:34;;;;;;;8.55;3.72;;;;;;;1.97;100.00;98224.03;6087462;19;20002;-71
2023/12/09 02:35:40;;;;;;;7.45;3.72;;;;;;;1.91;100.00;98212.53;6088712;19;20350;-71
2023/12/09 02:37:42;;;;;;;5.90;3.65;;;;;;;1.91;100.00;98225.38;6089662;19;19998;-71
2023/12/09 02:39:42;;;;;;;5.32;3.30;;;;;;;1.89;100.00;98222.94;6088902;19;20337;-72
2023/12/09 02:41:44;;;;;;;4.72;3.15;;;;;;;1.90;100.00;98213.66;6088936;19;19995;-72
2023/12/09 02:43:45;;;;;;;6.70;5.07;;;;;;;1.88;100.00;98229.53;6088917;19;20530;-72
2023/12/09 02:45:46;;;;;;;7.70;3.63;;;;;;;1.85;100.00;98219.28;6088070;19;20255;-72
2023/12/09 02:47:47;;;;;;;6.38;3.33;;;;;;;1.84;100.00;98222.34;6089479;19;19998;-72
2023/12/09 02:49:48;;;;;;;5.18;3.42;;;;;;;1.80;100.00;98224.09;6088475;19;20007;-72
2023/12/09 02:51:48;;;;;;;5.35;2.97;;;;;;;1.83;100.00;98231.66;6103057;19;20554;-72
2023/12/09 02:53:49;;;;;;;7.25;3.67;;;;;;;1.83;100.00;98227.00;6103301;19;20544;-72
2023/12/09 02:55:49;;;;;;;5.65;3.78;;;;;;;1.81;100.00;98226.50;6101506;19;20034;-72
2023/12/09 02:57:50;;;;;;;8.15;3.63;;;;;;;1.79;100.00;98228.75;6100679;19;20418;-72
2023/12/09 02:59:50;;;;;;;4.65;2.80;;;;;;;1.74;100.00;98217.22;6100007;19;20281;-71
2023/12/09 03:01:50;;;;;;;6.70;3.47;;;;;;;1.74;100.00;98217.22;6102061;19;20363;-72
2023/12/09 03:03:50;;;;;;;4.90;3.53;;;;;;;1.69;100.00;98221.75;6102541;19;20502;-72
2023/12/09 03:05:51;;;;;;;5.35;3.70;;;;;;;1.68;100.00;98230.25;6103015;19;20002;-71
2023/12/09 03:07:51;;;;;;;8.65;3.60;;;;;;;1.62;100.00;98224.16;6103003;19;20013;-71
2023/12/09 03:09:52;;;;;;;5.97;3.55;;;;;;;1.61;100.00;98221.75;6102073;19;20492;-71
2023/12/09 03:11:52;;;;;;;7.72;4.15;;;;;;;1.58;100.00;98225.94;6102406;19;20043;-72
2023/12/09 03:13:52;;;;;;;6.35;4.03;;;;;;;1.56;100.00;98224.66;6102679;19;20040;-72
2023/12/09 03:15:53;;;;;;;7.05;3.90;;;;;;;1.54;100.00;98221.47;6102465;19;20077;-72
2023/12/09 03:17:53;;;;;;;5.95;3.72;;;;;;;1.48;100.00;98204.47;6101384;19;20010;-72
2023/12/09 03:19:53;;;;;;;5.75;3.50;;;;;;;1.50;100.00;98204.16;6101885;19;20112;-71
2023/12/09 03:21:53;;;;;;;6.55;3.55;;;;;;;1.51;100.00;98211.22;6102626;19;20496;-72
2023/12/09 03:23:54;;;;;;;6.25;3.17;;;;;;;1.53;100.00;98211.69;6102984;19;20467;-72
2023/12/09 03:25:54;;;;;;;6.30;3.70;;;;;;;1.52;100.00;98208.16;6102408;19;20227;-72
2023/12/09 03:27:54;;;;;;;8.23;4.20;;;;;;;1.49;100.00;98203.38;6102277;19;20003;-72
2023/12/09 03:29:55;;;;;;;6.28;4.00;;;;;;;1.54;100.00;98207.81;6100512;19;20043;-72
2023/12/09 03:31:55;;;;;;;6.95;3.80;;;;;;;1.52;100.00;98205.44;6102202;19;20025;-72
2023/12/09 03:33:55;;;;;;;5.70;3.20;;;;;;;1.51;100.00;98201.09;6102597;19;20330;-72
2023/12/09 03:35:56;;;;;;;7.32;3.17;;;;;;;1.49;100.00;98208.81;6101612;19;20083;-72
2023/12/09 03:37:56;;;;;;;7.68;4.28;;;;;;;1.48;100.00;98204.47;6100982;19;20007;-72
2023/12/09 03:39:58;;;;;;;8.13;3.92;;;;;;;1.47;100.00;98200.13;6100752;19;20011;-72
2023/12/09 03:41:58;;;;;;;5.53;3.58;;;;;;;1.47;100.00;98204.78;6102279;19;20126;-72
2023/12/09 03:43:58;;;;;;;5.93;4.07;;;;;;;1.41;100.00;98185.09;6101634;19;20010;-72
2023/12/09 03:45:59;;;;;;;4.93;3.45;;;;;;;1.40;100.00;98187.00;6102436;19;20058;-72
2023/12/09 03:47:59;;;;;;;6.05;3.58;;;;;;;1.43;100.00;98193.75;6100859;19;20018;-72
2023/12/09 03:49:59;;;;;;;6.65;3.83;;;;;;;1.40;100.00;98186.19;6100530;19;20082;-72
2023/12/09 03:52:00;;;;;;;5.32;3.30;;;;;;;1.42;100.00;98185.91;6101788;19;20354;-72
2023/12/09 03:54:00;;;;;;;4.53;3.20;;;;;;;1.39;100.00;98190.06;6103090;19;20016;-72
2023/12/09 03:56:00;;;;;;;4.50;2.97;;;;;;;1.38;100.00;98183.81;6101623;19;20045;-72
2023/12/09 03:58:01;;;;;;;8.15;3.78;;;;;;;1.39;100.00;98188.13;6101882;19;20474;-72
2023/12/09 04:00:04;;;;;;;5.50;3.85;;;;;;;1.43;100.00;98195.69;6099338;19;20031;-72
2023/12/09 04:02:04;;;;;;;6.47;4.32;;;;;;;1.43;100.00;98191.03;6099639;19;20003;-72
2023/12/09 04:04:04;;;;;;;6.78;3.70;;;;;;;1.43;100.00;98182.03;6098946;19;20006;-72
2023/12/09 04:06:05;;;;;;;7.93;3.75;;;;;;;1.43;100.00;98179.31;6099221;19;20545;-72
2023/12/09 04:08:05;;;;;;;3.53;2.95;;;;;;;1.39;100.00;98179.16;6098324;19;20035;-72
2023/12/09 04:10:06;;;;;;;6.03;3.78;;;;;;;1.40;100.00;98178.81;6098418;19;20011;-72
2023/12/09 04:12:07;;;;;;;6.43;3.50;;;;;;;1.46;100.00;98184.91;6098357;19;20009;-72
2023/12/09 04:14:07;;;;;;;8.10;4.32;;;;;;;1.46;100.00;98174.00;6099698;19;20320;-71
2023/12/09 04:16:07;;;;;;;6.93;3.85;;;;;;;1.48;100.00;98187.31;6098853;19;20003;-71
2023/12/09 04:18:08;;;;;;;6.95;3.88;;;;;;;1.46;100.00;98181.38;6098512;19;20009;-72
2023/12/09 04:20:09;;;;;;;4.72;3.63;;;;;;;1.46;100.00;98184.09;6097609;19;20005;-72
2023/12/09 04:22:10;;;;;;;6.18;3.72;;;;;;;1.43;100.00;98177.38;6098942;19;20022;-72
2023/12/09 04:24:10;;;;;;;5.97;3.65;;;;;;;1.41;100.00;98174.19;6098629;19;20014;-72
2023/12/09 04:26:10;;;;;;;5.70;3.30;;;;;;;1.41;100.00;98168.75;6098929;19;20333;-72
2023/12/09 04:28:13;;;;;;;4.88;3.50;;;;;;;1.39;100.00;98173.69;6098005;19;20480;-72
2023/12/09 04:30:14;;;;;;;6.30;3.92;;;;;;;1.42;100.00;98166.81;6097228;19;20015;-72
2023/12/09 04:32:14;;;;;;;4.90;3.70;;;;;;;1.38;100.00;98181.06;6098297;19;20019;-72
2023/12/09 04:34:14;;;;;;;6.35;3.67;;;;;;;1.41;100.00;98174.19;6098814;19;20029;-71
2023/12/09 04:36:15;;;;;;;10.20;3.80;;;;;;;1.40;100.00;98173.38;6098694;19;20365;-71
2023/12/09 04:38:15;;;;;;;5.40;3.75;;;;;;;1.39;100.00;98160.06;6098751;19;20451;-72
2023/12/09 04:40:16;;;;;;;5.47;3.78;;;;;;;1.36;100.00;98158.00;6097282;19;20011;-72
2023/12/09 04:42:17;;;;;;;7.45;4.15;;;;;;;1.42;100.00;98158.63;6098227;19;20007;-72
2023/12/09 04:44:17;;;;;;;7.00;4.43;;;;;;;1.42;100.00;98150.47;6098083;19;20010;-72
2023/12/09 04:46:18;;;;;;;7.20;4.45;;;;;;;1.42;100.00;98142.28;6098512;19;20007;-72
2023/12/09 04:48:19;;;;;;;8.13;4.72;;;;;;;1.38;100.00;98136.66;6098804;19;20062;-72
2023/12/09 04:50:19;;;;;;;6.18;4.22;;;;;;;1.37;100.00;98144.03;6094709;19;20418;-72
2023/12/09 04:52:20;;;;;;;7.35;3.97;;;;;;;1.34;100.00;98139.25;6098410;19;20018;-72
2023/12/09 04:54:20;;;;;;;6.65;4.05;;;;;;;1.33;100.00;98134.13;6098497;19;20018;-72
2023/12/09 04:56:21;;;;;;;5.70;3.20;;;;;;;1.33;100.00;98136.84;6098041;19;20250;-72
2023/12/09 04:58:21;;;;;;;4.93;2.15;;;;;;;1.48;100.00;98139.03;6097829;19;20057;-72
2023/12/09 05:00:21;;;;;;;2.33;1.70;;;;;;;1.67;100.00;98133.19;5951635;19;2864629;-72
2023/12/09 05:02:22;;;;;;;2.33;1.80;;;;;;;1.75;100.00;98135.09;6101241;19;20013;-72
2023/12/09 05:04:22;;;;;;;2.63;1.50;;;;;;;1.87;100.00;98142.56;6100558;19;20340;-72
2023/12/09 05:06:23;;;;;;;2.72;1.90;;;;;;;1.95;100.00;98138.97;6100036;19;20013;-72
2023/12/09 05:08:23;;;;;;;1.65;1.30;;;;;;;1.97;100.00;98134.78;6101627;19;20006;-72
2023/12/09 05:10:24;;;;;;;1.85;1.60;;;;;;;2.02;100.00;98146.66;6098022;19;20021;-71
2023/12/09 05:12:24;;;;;;;2.70;1.65;;;;;;;2.06;100.00;98132.00;6099782;19;20575;-72
2023/12/09 05:14:24;;;;;;;3.30;2.00;;;;;;;2.07;100.00;98127.34;6100046;19;20002;-72
2023/12/09 05:16:25;;;;;;;2.53;1.67;;;;;;;2.04;100.00;98128.81;6099740;19;20522;-72
2023/12/09 05:18:26;;;;;;;1.90;1.58;;;;;;;2.02;100.00;98120.16;6099471;19;20299;-72
2023/12/09 05:20:26;;;;;;;2.00;1.45;;;;;;;2.06;100.00;98126.53;6097926;19;20029;-72
2023/12/09 05:22:26;;;;;;;2.20;1.70;;;;;;;2.04;100.00;98126.09;6099401;19;20303;-72
2023/12/09 05:24:27;;;;;;;1.70;1.60;;;;;;;2.03;100.00;98121.75;6099323;19;20006;-71
2023/12/09 05:26:28;;;;;;;2.28;1.67;;;;;;;2.00;100.00;98119.72;6098872;19;20005;-71
2023/12/09 05:28:30;;;;;;;2.07;1.53;;;;;;;1.95;100.00;98126.13;6100274;19;20022;-72
2023/12/09 05:30:31;;;;;;;2.00;1.67;;;;;;;1.89;100.00;98132.09;6098859;19;20030;-72
2023/12/09 05:32:31;;;;;;;3.47;1.85;;;;;;;1.80;100.00;98112.25;6100236;19;20007;-72
2023/12/09 05:34:31;;;;;;;4.60;2.00;;;;;;;1.74;100.00;98121.75;6098181;19;20356;-72
2023/12/09 05:36:32;;;;;;;2.38;1.73;;;;;;;1.66;100.00;98126.94;6099473;19;20017;-72
2023/12/09 05:38:32;;;;;;;3.45;2.30;;;;;;;1.59;100.00;98121.19;6099301;19;20010;-72
2023/12/09 05:40:32;;;;;;;3.08;1.70;;;;;;;1.52;100.00;98120.09;6097261;19;20022;-72
2023/12/09 05:42:33;;;;;;;4.18;2.30;;;;;;;1.48;100.00;98119.16;6099123;19;20015;-72
2023/12/09 05:44:33;;;;;;;4.13;2.25;;;;;;;1.43;100.00;98114.69;6098744;19;20009;-71
2023/12/09 05:46:36;;;;;;;4.15;2.40;;;;;;;1.42;100.00;98121.28;6098833;19;20010;-71
2023/12/09 05:48:36;;;;;;;3.80;2.28;;;;;;;1.37;100.00;98121.44;6099115;19;20018;-71
2023/12/09 05:50:37;;;;;;;3.13;2.03;;;;;;;1.33;100.00;98126.75;6086574;19;20007;-71
2023/12/09 05:52:37;;;;;;;3.28;2.00;;;;;;;1.32;100.00;98121.59;6094381;19;20085;-71
2023/12/09 05:54:38;;;;;;;2.80;2.03;;;;;;;1.26;100.00;98121.00;6093575;19;20003;-71
2023/12/09 05:56:47;;;;;;;2.80;1.95;;;;;;;1.20;100.00;98130.47;6096802;19;20279;-72
2023/12/09 05:58:47;;;;;;;3.78;2.08;;;;;;;1.16;100.00;98145.06;6095288;19;20042;-72
2023/12/09 06:00:48;;;;;;;3.30;2.15;;;;;;;1.12;100.00;98143.00;6096491;19;20003;-72
2023/12/09 06:02:48;;;;;;;6.18;2.58;;;;;;;1.07;100.00;98139.63;6100875;19;20352;-72
2023/12/09 06:04:48;;;;;;;3.35;2.10;;;;;;;1.04;100.00;98140.28;6103212;19;20305;-72
2023/12/09 06:06:48;;;;;;;5.30;2.55;;;;;;;0.99;100.00;98138.50;6103002;19;20007;-72
2023/12/09 06:08:49;;;;;;;4.05;2.60;;;;;;;0.97;100.00;98135.31;6099836;19;20037;-72
2023/12/09 06:10:49;;;;;;;2.85;1.90;;;;;;;0.92;100.00;98148.34;6102903;19;20010;-72
2023/12/09 06:12:50;;;;;;;4.25;2.20;;;;;;;0.83;100.00;98143.69;6102675;19;20017;-72
2023/12/09 06:14:51;;;;;;;5.65;2.30;;;;;;;0.79;100.00;98150.91;6102247;19;20223;-72
2023/12/09 06:16:52;;;;;;;5.30;2.92;;;;;;;0.77;100.00;98161.31;6102814;19;20463;-72
2023/12/09 06:18:52;;;;;;;5.47;2.75;;;;;;;0.75;100.00;98149.94;6101791;19;20006;-72
2023/12/09 06:20:52;;;;;;;4.15;2.60;;;;;;;0.74;100.00;98158.41;6102511;19;20073;-72
2023/12/09 06:22:53;;;;;;;4.22;2.70;;;;;;;0.77;100.00;98160.50;6102250;19;20018;-72
2023/12/09 06:24:53;;;;;;;4.32;3.00;;;;;;;0.71;100.00;98148.19;6101362;19;20293;-72
2023/12/09 06:26:54;;;;;;;4.88;3.03;;;;;;;0.68;100.00;98143.38;6100690;19;20023;-72
2023/12/09 06:28:54;;;;;;;4.50;2.45;;;;;;;0.71;100.00;98154.41;6102286;19;20011;-72
2023/12/09 06:30:54;;;;;;;7.50;2.80;;;;;;;0.71;100.00;98151.69;6102654;19;20109;-72
2023/12/09 06:32:55;;;;;;;5.45;3.35;;;;;;;0.74;100.00;98158.41;6103504;19;20006;-72
2023/12/09 06:34:55;;;;;;;8.27;3.25;;;;;;;0.75;100.00;98157.31;6100768;19;20006;-72
2023/12/09 06:36:55;;;;;;;6.53;3.42;;;;;;;0.73;100.00;98152.16;6102407;19;20328;-72
2023/12/09 06:38:56;;;;;;;6.07;3.40;;;;;;;0.71;100.00;98146.25;6101793;19;20078;-72
2023/12/09 06:40:56;;;;;;;6.07;3.20;;;;;;;0.73;100.00;98140.47;6101805;19;20021;-72
2023/12/09 06:42:56;;;;;;;9.85;4.25;;;;;;;0.73;100.00;98151.38;6102203;19;20030;-72
2023/12/09 06:44:57;;;;;;;5.68;3.75;;;;;;;0.69;100.00;98140.34;6099395;19;20050;-72
2023/12/09 06:46:57;;;;;;;6.60;3.50;;;;;;;0.70;100.00;98139.22;6102271;19;20011;-72
2023/12/09 06:48:57;;;;;;;7.60;3.83;;;;;;;0.70;100.00;98131.03;6101008;19;20011;-71
2023/12/09 06:50:58;;;;;;;5.53;3.08;;;;;;;0.70;100.00;98141.13;6088805;19;20237;-72
2023/12/09 06:53:00;;;;;;;6.35;3.47;;;;;;;0.66;100.00;98137.44;6087290;19;20403;-72
2023/12/09 06:55:01;;;;;;;3.95;2.58;;;;;;;0.66;100.00;98140.97;6087623;19;20088;-72
2023/12/09 06:57:01;;;;;;;3.85;2.33;;;;;;;0.66;100.00;98123.81;6087009;19;20031;-72
2023/12/09 06:59:01;;;;;;;5.38;2.78;;;;;;;0.67;100.00;98128.97;6087799;19;20958;-72
2023/12/09 07:01:02;;;;;;;5.95;2.40;;;;;;;0.64;100.00;98120.63;6085209;19;19999;-72
2023/12/09 07:03:02;;;;;;;5.47;2.63;;;;;;;0.62;100.00;98125.59;6087893;19;20002;-72
2023/12/09 07:05:03;;;;;;;9.10;3.90;;;;;;;0.60;100.00;98123.19;6087501;19;20287;-72
2023/12/09 07:07:06;;;;;;;6.07;3.00;;;;;;;0.56;100.00;98117.59;6087470;19;19999;-72
2023/12/09 07:09:07;;;;;;;3.47;2.50;;;;;;;0.55;100.00;98116.00;6086151;19;20011;-72
2023/12/09 07:11:09;;;;;;;3.85;2.88;;;;;;;0.52;100.00;98118.56;6087742;19;20009;-72
2023/12/09 07:13:09;;;;;;;7.63;3.07;;;;;;;0.49;100.00;98116.47;6086152;19;20002;-72
2023/12/09 07:15:11;;;;;;;10.73;3.53;;;;;;;0.48;100.00;98114.88;6088233;19;20542;-72
2023/12/09 07:17:12;;;;;;;7.00;2.67;;;;;;;0.46;100.00;98123.34;6087911;19;19998;-72
2023/12/09 07:19:12;;;;;;;6.95;3.00;;;;;;;0.44;100.00;98128.31;6086697;19;20002;-72
2023/12/09 07:21:13;;;;;;;10.13;4.70;;;;;;;0.37;100.00;98136.16;6086687;19;20032;-72
2023/12/09 07:23:14;;;;;;;6.18;2.97;;;;;;;0.36;100.00;98142.72;6086898;19;20211;-72
2023/12/09 07:25:14;;;;;;;7.00;3.17;;;;;;;0.39;100.00;98141.28;6086788;19;20325;-72
2023/12/09 07:27:15;;;;;;;9.07;3.25;;;;;;;0.41;100.00;98142.56;6088155;19;20003;-72
2023/12/09 07:29:15;;;;;;;6.47;3.20;;;;;;;0.41;100.00;98139.84;6087217;19;20010;-72
2023/12/09 07:31:16;;;;;;;7.00;3.95;;;;;;;0.47;100.00;98140.50;6087856;19;20036;-72
2023/12/09 07:33:16;;;;;;;5.82;3.60;;;;;;;0.49;100.00;98139.03;6086383;19;20002;-72
2023/12/09 07:35:17;;;;;;;9.38;3.40;;;;;;;0.57;100.00;98142.88;6087213;19;20014;-71
2023/12/09 07:37:17;;;;;;;6.85;3.22;;;;;;;0.63;100.00;98136.16;6087095;19;20321;-72
2023/12/09 07:39:17;;;;;;;4.57;2.67;;;;;;;0.69;100.00;98134.09;6085780;19;20026;-71
2023/12/09 07:41:18;;;;;;;3.45;1.83;;;;;;;0.72;100.00;98128.78;6087451;19;20469;-72
2023/12/09 07:43:19;;;;;;;4.07;2.17;;;;;;;0.81;100.00;98134.22;6087272;19;20187;-72
2023/12/09 07:45:19;;;;;;;6.70;1.92;;;;;;;0.85;100.00;98124.31;6086877;19;20062;-71
2023/12/09 07:47:19;;;;;;;7.03;2.45;;;;;;;0.92;100.00;98121.88;6087648;19;20717;-71
2023/12/09 07:49:20;;;;;;;7.97;4.85;;;;;;;0.93;100.00;98109.88;6083199;19;20033;-71
2023/12/09 07:51:20;;;;;;;16.45;7.47;;;;;;;0.95;100.00;98104.09;6100164;19;20010;-71
2023/12/09 07:53:21;;;;;;;12.65;5.82;;;;;;;0.96;100.00;98095.59;6100988;19;20037;-71
2023/12/09 07:55:21;;;;;;;12.40;5.95;;;;;;;0.97;100.00;98107.28;6100741;19;20066;-71
2023/12/09 07:57:21;;;;;;;13.10;5.65;;;;;;;0.99;100.00;98119.44;6101144;19;20003;-71
2023/12/09 07:59:21;;;;;;;17.48;9.10;;;;;;;1.01;100.00;98111.78;6099023;19;19994;-71
2023/12/09 08:01:22;;;;;;;22.02;11.13;;;;;;;1.01;100.00;98105.53;6099130;19;20011;-71
2023/12/09 08:03:22;;;;;;;14.00;7.20;;;;;;;1.04;100.00;98100.22;6100295;19;20006;-71
2023/12/09 08:05:23;;;;;;;17.38;8.88;;;;;;;1.06;100.00;98108.84;6100363;19;20007;-71
2023/12/09 08:07:23;;;;;;;13.82;7.53;;;;;;;1.10;100.00;98101.66;6100812;19;20003;-71
2023/12/09 08:09:24;;;;;;;13.43;6.68;;;;;;;1.13;100.00;98094.75;6097428;19;20333;-72
2023/12/09 08:11:24;;;;;;;11.40;5.55;;;;;;;1.16;100.00;98093.28;6096970;19;20446;-72
2023/12/09 08:13:24;;;;;;;6.57;3.13;;;;;;;1.21;100.00;98099.38;6101968;19;20345;-72
2023/12/09 08:15:25;;;;;;;5.93;3.88;;;;;;;1.22;100.00;98098.25;6100228;19;20113;-72
2023/12/09 08:17:25;;;;;;;13.50;6.80;;;;;;;1.23;100.00;98099.84;6101057;19;20414;-72
2023/12/09 08:19:25;;;;;;;11.30;5.47;;;;;;;1.27;100.00;98089.91;6098734;19;20007;-72
2023/12/09 08:21:26;;;;;;;12.23;5.60;;;;;;;1.32;100.00;98097.06;6101173;19;20101;-72
2023/12/09 08:23:26;;;;;;;14.93;8.10;;;;;;;1.34;100.00;98092.91;6098915;19;20338;-72
2023/12/09 08:25:27;;;;;;;14.13;7.30;;;;;;;1.38;100.00;98087.59;6098348;19;20007;-72
2023/12/09 08:27:28;;;;;;;13.40;8.02;;;;;;;1.42;100.00;98094.00;6100617;19;20707;-71
2023/12/09 08:29:28;;;;;;;12.43;7.38;;;;;;;1.43;100.00;98090.16;6099938;19;20029;-72
2023/12/09 08:31:28;;;;;;;11.38;6.30;;;;;;;1.47;100.00;98084.84;6100221;19;20345;-72
2023/12/09 08:33:29;;;;;;;13.80;6.57;;;;;;;1.53;100.00;98080.81;6100873;19;20096;-72
2023/12/09 08:35:30;;;;;;;9.85;4.68;;;;;;;1.64;100.00;98080.09;6099324;19;20329;-72
2023/12/09 08:37:30;;;;;;;5.80;3.58;;;;;;;1.78;100.00;98081.78;6100412;19;20042;-72
2023/12/09 08:39:31;;;;;;;6.18;3.40;;;;;;;1.90;100.00;98074.50;6099454;19;20318;-72
2023/12/09 08:41:31;;;;;;;4.78;4.20;;;;;;;2.10;100.00;98081.09;6100637;19;20066;-72
2023/12/09 08:43:31;;;;;;;4.25;3.00;;;;;;;2.24;100.00;98078.91;6099235;19;20007;-72
2023/12/09 08:45:32;;;;;;;2.83;2.00;;;;;;;2.41;100.00;98077.19;6099414;19;20040;-72
2023/12/09 08:47:33;;;;;;;2.92;2.08;;;;;;;2.47;100.00;98078.56;6099312;19;20298;-72
2023/12/09 08:49:33;;;;;;;12.73;8.93;;;;;;;2.55;100.00;98077.69;6097034;19;20016;-72
2023/12/09 08:51:47;;;;;;;8.27;5.13;;;;;;;2.61;100.00;98070.88;6099446;19;20066;-72
2023/12/09 08:53:47;;;;;;;13.25;7.55;;;;;;;2.62;100.00;98067.03;6098446;19;19994;-72
2023/12/09 08:55:48;;;;;;;15.48;8.15;;;;;;;2.59;100.00;98061.44;6096266;19;20551;-72
2023/12/09 08:57:48;;;;;;;23.70;11.60;;;;;;;2.65;100.00;98060.06;6100600;19;20019;-72
2023/12/09 08:59:48;;;;;;;12.55;6.03;;;;;;;2.78;100.00;98064.47;6098272;19;20026;-72
2023/12/09 09:01:49;;;;;;;12.05;7.47;;;;;;;2.75;100.00;98057.75;6099113;19;20360;-72
2023/12/09 09:03:49;;;;;;;11.57;6.40;;;;;;;2.76;100.00;98047.63;6099252;19;20010;-72
2023/12/09 09:05:49;;;;;;;11.85;6.65;;;;;;;2.76;100.00;98047.63;6096881;19;20087;-72
2023/12/09 09:07:50;;;;;;;13.00;6.53;;;;;;;2.77;100.00;98041.00;6096647;19;20454;-71
2023/12/09 09:09:51;;;;;;;11.40;4.93;;;;;;;2.80;100.00;98045.78;6098445;19;20470;-71
2023/12/09 09:11:51;;;;;;;6.60;4.15;;;;;;;2.80;100.00;98051.25;6098002;19;19999;-71
2023/12/09 09:13:51;;;;;;;6.95;4.32;;;;;;;2.77;100.00;98055.47;6098578;19;19998;-71
2023/12/09 09:15:52;;;;;;;5.18;3.17;;;;;;;2.77;100.00;98051.94;6097482;19;20007;-71
2023/12/09 09:17:52;;;;;;;4.18;2.80;;;;;;;2.80;100.00;98048.53;6099143;19;20011;-72
2023/12/09 09:19:52;;;;;;;4.68;2.80;;;;;;;2.87;100.00;98045.25;6097691;19;20011;-72
2023/12/09 09:21:53;;;;;;;8.25;2.97;;;;;;;2.87;100.00;98039.78;6099488;19;20019;-72
2023/12/09 09:23:53;;;;;;;7.18;3.28;;;;;;;2.96;100.00;98035.00;6099079;19;20010;-72
2023/12/09 09:25:54;;;;;;;6.22;3.42;;;;;;;3.00;100.00;98035.94;6099405;19;20033;-72
2023/12/09 09:27:54;;;;;;;10.38;4.60;;;;;;;3.07;100.00;98033.47;6098906;19;20002;-72